Time;durP1;ratioP1;P1;durP2;ratioP2;P2;SDS_P1;SDS_P2;PMS_P1;PMS_P2;Temp;Humidity;BMP_temperature;BMP_pressure;BME280_temperature;BME280_humidity;BME280_pressure;Samples;Min_cycle;Max_cycle;Signal;HPM_P1;HPM_P2
2023/09/20 00:01:04;;;;;;;17.75;3.88;;;18.50;99.90;;;;;;5033148;28;20053;-75
2023/09/20 00:03:31;;;;;;;19.23;4.18;;;18.50;99.90;;;;;;5017785;28;20170;-75
2023/09/20 00:05:59;;;;;;;16.48;3.70;;;18.50;99.90;;;;;;5031062;28;20083;-75
2023/09/20 00:08:25;;;;;;;16.00;3.90;;;18.50;99.90;;;;;;5022422;28;20055;-75
2023/09/20 00:10:51;;;;;;;16.42;3.38;;;18.50;99.90;;;;;;5056139;28;20031;-75
2023/09/20 00:13:16;;;;;;;18.77;4.00;;;18.50;99.90;;;;;;5055192;28;20075;-75
2023/09/20 00:15:45;;;;;;;20.15;4.38;;;18.50;99.90;;;;;;5019758;28;20092;-75
2023/09/20 00:18:11;;;;;;;21.52;4.15;;;18.50;99.90;;;;;;5037824;28;20040;-78
2023/09/20 00:20:39;;;;;;;16.65;3.40;;;18.40;99.90;;;;;;5055079;28;20048;-77
2023/09/20 00:23:05;;;;;;;16.38;3.13;;;18.50;99.90;;;;;;5039354;28;20036;-78
2023/09/20 00:25:31;;;;;;;14.77;3.13;;;18.40;99.90;;;;;;5038669;28;20135;-79
2023/09/20 00:27:57;;;;;;;19.35;4.32;;;18.40;99.90;;;;;;5015177;28;20044;-80
2023/09/20 00:30:22;;;;;;;16.85;3.70;;;18.40;99.90;;;;;;5003103;28;20606;-80
2023/09/20 00:32:48;;;;;;;15.60;3.65;;;18.40;99.90;;;;;;5024561;28;20044;-73
2023/09/20 00:35:17;;;;;;;19.77;3.88;;;18.30;99.90;;;;;;5028151;28;20041;-75
2023/09/20 00:37:47;;;;;;;18.08;4.22;;;18.30;99.90;;;;;;5039173;28;20094;-74
2023/09/20 00:40:20;;;;;;;16.48;3.65;;;18.30;99.90;;;;;;5030853;28;20279;-74
2023/09/20 00:42:51;;;;;;;18.42;3.50;;;18.30;99.90;;;;;;5033447;28;20037;-74
2023/09/20 00:45:19;;;;;;;17.67;4.03;;;18.30;99.90;;;;;;5040957;28;20044;-75
2023/09/20 00:47:55;;;;;;;21.35;3.53;;;18.30;99.90;;;;;;5057626;28;20055;-75
2023/09/20 00:50:22;;;;;;;15.90;3.50;;;18.30;99.90;;;;;;5054998;28;20052;-74
2023/09/20 00:52:52;;;;;;;11.38;3.15;;;18.30;99.90;;;;;;5039518;28;20048;-75
2023/09/20 00:55:23;;;;;;;21.17;4.25;;;18.30;99.90;;;;;;5039457;28;20044;-74
2023/09/20 00:57:53;;;;;;;18.63;4.30;;;18.30;99.90;;;;;;5039051;28;20059;-74
2023/09/20 01:00:21;;;;;;;15.30;3.42;;;18.30;99.90;;;;;;5039153;28;20044;-83
2023/09/20 01:02:58;;;;;;;18.40;4.05;;;18.30;99.90;;;;;;5037560;28;20044;-78
2023/09/20 01:05:28;;;;;;;14.10;3.70;;;18.30;99.90;;;;;;5048194;28;20043;-78
2023/09/20 01:07:55;;;;;;;13.00;3.15;;;18.30;99.90;;;;;;5036278;28;20542;-78
2023/09/20 01:10:23;;;;;;;17.30;3.45;;;18.30;99.90;;;;;;5041319;28;20051;-76
2023/09/20 01:12:58;;;;;;;15.43;3.63;;;18.30;99.90;;;;;;5039160;28;20363;-77
2023/09/20 01:15:26;;;;;;;16.25;3.15;;;18.30;99.90;;;;;;5052526;28;20287;-78
2023/09/20 01:17:57;;;;;;;15.52;3.03;;;18.30;99.90;;;;;;5016143;28;20082;-75
2023/09/20 01:20:27;;;;;;;17.17;3.25;;;18.30;99.90;;;;;;5019696;28;20075;-77
2023/09/20 01:22:54;;;;;;;16.63;3.20;;;18.30;99.90;;;;;;5038870;28;20733;-77
2023/09/20 01:25:22;;;;;;;14.05;2.72;;;18.20;99.90;;;;;;5055537;28;20045;-77
2023/09/20 01:27:55;;;;;;;13.80;3.80;;;18.30;99.90;;;;;;5053051;28;20068;-77
2023/09/20 01:30:25;;;;;;;11.32;2.58;;;18.30;99.90;;;;;;5044083;28;20049;-78
2023/09/20 01:32:55;;;;;;;16.77;3.25;;;18.30;99.90;;;;;;5020308;28;20399;-77
2023/09/20 01:35:22;;;;;;;16.85;3.25;;;18.40;99.90;;;;;;5036126;28;20052;-80
2023/09/20 01:37:51;;;;;;;15.68;3.13;;;18.40;99.90;;;;;;5038106;28;20056;-78
2023/09/20 01:40:19;;;;;;;15.13;3.28;;;18.40;99.90;;;;;;5045950;28;20515;-77
2023/09/20 01:42:49;;;;;;;14.48;3.03;;;18.40;99.90;;;;;;5038482;28;20575;-76
2023/09/20 01:45:19;;;;;;;11.80;2.88;;;18.50;99.90;;;;;;5031905;28;20049;-77
2023/09/20 01:47:50;;;;;;;14.77;3.30;;;18.50;99.90;;;;;;5047057;28;20044;-77
2023/09/20 01:50:19;;;;;;;15.63;2.83;;;18.50;99.90;;;;;;5053912;28;20195;-77
2023/09/20 01:53:08;;;;;;;15.98;3.22;;;18.40;99.90;;;;;;5017332;28;20044;-77
2023/09/20 01:55:36;;;;;;;18.00;3.72;;;18.50;99.90;;;;;;5034452;28;20036;-76
2023/09/20 01:58:06;;;;;;;16.98;3.47;;;18.50;99.90;;;;;;5015356;28;20052;-78
2023/09/20 02:00:39;;;;;;;17.13;3.15;;;18.40;99.90;;;;;;5018586;28;20059;-77
2023/09/20 02:03:10;;;;;;;15.27;3.35;;;18.40;99.90;;;;;;5036469;28;20047;-76
2023/09/20 02:05:36;;;;;;;18.60;3.35;;;18.40;99.90;;;;;;5029739;28;20115;-77
2023/09/20 02:08:08;;;;;;;16.15;3.35;;;18.40;99.90;;;;;;5037836;28;20168;-77
2023/09/20 02:10:36;;;;;;;12.00;3.13;;;18.40;99.90;;;;;;5021096;28;20052;-77
2023/09/20 02:13:03;;;;;;;14.93;2.97;;;18.40;99.90;;;;;;5037085;28;20040;-77
2023/09/20 02:15:31;;;;;;;13.75;2.97;;;18.40;99.90;;;;;;5037598;28;20055;-77
2023/09/20 02:17:57;;;;;;;11.00;2.97;;;18.40;99.90;;;;;;5041662;28;21945;-77
2023/09/20 02:20:25;;;;;;;12.07;2.53;;;18.40;99.90;;;;;;5038212;28;20167;-76
2023/09/20 02:22:54;;;;;;;15.98;3.17;;;18.40;99.90;;;;;;5038699;28;20063;-76
2023/09/20 02:25:20;;;;;;;19.63;3.15;;;18.40;99.90;;;;;;5045332;28;20049;-77
2023/09/20 02:27:50;;;;;;;15.35;3.15;;;18.10;99.90;;;;;;5037578;28;20044;-77
2023/09/20 02:30:19;;;;;;;13.48;2.78;;;18.40;99.90;;;;;;5033838;28;20053;-77
2023/09/20 02:32:51;;;;;;;14.32;2.92;;;18.40;99.90;;;;;;5043946;28;20083;-78
2023/09/20 02:35:17;;;;;;;17.58;2.90;;;18.40;99.90;;;;;;5038295;28;20152;-78
2023/09/20 02:37:43;;;;;;;13.98;3.30;;;18.40;99.90;;;;;;5016387;28;20523;-77
2023/09/20 02:40:18;;;;;;;14.10;2.80;;;18.40;99.90;;;;;;5036974;28;20052;-75
2023/09/20 02:42:52;;;;;;;11.38;2.58;;;18.40;99.90;;;;;;5044264;28;20056;-75
2023/09/20 02:45:20;;;;;;;12.35;2.83;;;18.40;99.90;;;;;;5049228;28;20049;-75
2023/09/20 02:47:47;;;;;;;15.77;2.90;;;18.40;99.90;;;;;;5021527;28;20044;-76
2023/09/20 02:50:16;;;;;;;14.23;3.22;;;18.40;99.90;;;;;;5052224;28;20131;-75
2023/09/20 02:52:49;;;;;;;13.48;3.38;;;18.40;99.90;;;;;;5050002;28;20082;-75
2023/09/20 02:55:17;;;;;;;14.10;2.70;;;18.40;99.90;;;;;;5038229;28;20044;-76
2023/09/20 02:57:44;;;;;;;16.55;3.08;;;18.50;99.90;;;;;;5014665;28;20698;-76
2023/09/20 03:00:15;;;;;;;10.98;2.75;;;18.50;99.90;;;;;;5022088;28;20060;-75
2023/09/20 03:02:51;;;;;;;11.30;2.72;;;18.50;99.90;;;;;;5034342;28;20048;-75
2023/09/20 03:05:26;;;;;;;11.63;2.97;;;18.40;99.90;;;;;;5018053;28;20052;-75
2023/09/20 03:07:54;;;;;;;15.10;2.87;;;18.40;99.90;;;;;;5036397;28;20356;-76
2023/09/20 03:10:23;;;;;;;13.63;3.08;;;18.50;99.90;;;;;;5048744;28;20055;-80
2023/09/20 03:12:51;;;;;;;13.38;3.28;;;18.40;99.90;;;;;;5053802;28;20093;-79
2023/09/20 03:15:23;;;;;;;15.60;3.30;;;18.40;99.90;;;;;;5033205;28;20044;-81
2023/09/20 03:17:56;;;;;;;14.27;2.78;;;18.40;99.90;;;;;;5032515;28;20064;-78
2023/09/20 03:20:25;;;;;;;13.50;3.38;;;18.40;99.90;;;;;;5035693;28;20086;-83
2023/09/20 03:22:57;;;;;;;9.82;2.53;;;18.40;99.90;;;;;;5039352;28;20093;-82
2023/09/20 03:25:24;;;;;;;10.90;3.15;;;18.40;99.90;;;;;;5023472;28;20079;-83
2023/09/20 03:27:51;;;;;;;12.30;2.53;;;18.50;99.90;;;;;;5037571;28;20040;-77
2023/09/20 03:30:20;;;;;;;12.30;2.85;;;18.50;99.90;;;;;;5060425;28;20051;-82
2023/09/20 03:32:49;;;;;;;14.25;2.63;;;18.50;99.90;;;;;;5026767;28;20439;-85
2023/09/20 03:35:16;;;;;;;10.75;2.53;;;18.50;99.90;;;;;;5059171;28;20070;-82
2023/09/20 03:37:43;;;;;;;14.43;2.70;;;18.50;99.90;;;;;;5042125;28;20048;-81
2023/09/20 03:40:11;;;;;;;12.07;2.90;;;18.50;99.90;;;;;;5028628;28;21253;-83
2023/09/20 03:42:40;;;;;;;16.52;3.28;;;18.60;99.90;;;;;;5033016;28;20048;-77
2023/09/20 03:45:11;;;;;;;12.05;2.67;;;18.50;99.90;;;;;;5054372;28;20173;-80
2023/09/20 03:47:45;;;;;;;13.20;3.33;;;18.60;99.90;;;;;;5019576;28;20055;-81
2023/09/20 03:50:12;;;;;;;8.60;2.97;;;18.50;99.90;;;;;;5042319;28;20044;-81
2023/09/20 03:52:39;;;;;;;12.10;3.70;;;18.40;99.90;;;;;;5039506;28;20059;-80
2023/09/20 03:55:06;;;;;;;12.80;3.67;;;18.30;99.90;;;;;;5043135;28;20053;-86
2023/09/20 03:57:34;;;;;;;13.32;3.50;;;18.30;99.90;;;;;;5039927;28;20093;-81
2023/09/20 04:00:00;;;;;;;9.70;3.42;;;18.20;99.90;;;;;;5019857;28;20052;-79
2023/09/20 04:02:28;;;;;;;9.60;3.63;;;18.10;99.90;;;;;;5037037;28;20478;-80
2023/09/20 04:04:55;;;;;;;10.00;3.75;;;18.00;99.90;;;;;;5021153;28;20075;-80
2023/09/20 04:07:26;;;;;;;12.63;4.25;;;17.90;99.90;;;;;;5037459;28;20472;-80
2023/09/20 04:09:52;;;;;;;13.02;4.28;;;17.90;99.90;;;;;;5040019;28;20124;-80
2023/09/20 04:12:18;;;;;;;13.52;4.22;;;17.80;99.90;;;;;;5042129;28;20040;-79
2023/09/20 04:14:44;;;;;;;8.55;3.95;;;17.80;99.90;;;;;;5017322;28;20064;-80
2023/09/20 04:17:11;;;;;;;9.80;3.92;;;17.70;99.90;;;;;;5011982;28;20054;-79
2023/09/20 04:19:40;;;;;;;11.25;4.03;;;17.60;99.90;;;;;;5020833;28;20045;-80
2023/09/20 04:22:22;;;;;;;15.70;4.82;;;17.60;99.90;;;;;;5035184;28;20498;-80
2023/09/20 04:24:48;;;;;;;11.90;4.00;;;17.60;99.90;;;;;;5035862;28;20093;-80
2023/09/20 04:27:15;;;;;;;11.10;4.30;;;17.50;99.90;;;;;;5004966;28;20133;-80
2023/09/20 04:29:42;;;;;;;9.23;4.10;;;17.50;99.90;;;;;;5041877;28;20051;-83
2023/09/20 04:32:08;;;;;;;12.43;4.63;;;17.50;99.90;;;;;;5036969;28;20110;-82
2023/09/20 04:34:34;;;;;;;11.38;4.68;;;17.40;99.90;;;;;;5036522;28;20140;-83
2023/09/20 04:37:01;;;;;;;10.02;4.60;;;17.50;99.90;;;;;;5038748;28;20076;-82
2023/09/20 04:39:27;;;;;;;13.63;4.47;;;17.40;99.90;;;;;;5023674;28;20044;-84
2023/09/20 04:41:56;;;;;;;9.35;4.18;;;17.40;99.90;;;;;;5024859;28;20566;-80
2023/09/20 04:44:21;;;;;;;6.25;3.95;;;17.40;99.90;;;;;;5042392;28;20052;-84
2023/09/20 04:46:50;;;;;;;10.75;4.45;;;17.30;99.90;;;;;;5039091;28;20062;-83
2023/09/20 04:49:16;;;;;;;12.13;4.00;;;17.30;99.90;;;;;;5007510;28;20048;-83
2023/09/20 04:51:42;;;;;;;13.32;4.45;;;17.30;99.90;;;;;;5019324;28;20397;-79
2023/09/20 04:54:08;;;;;;;10.80;4.30;;;17.30;99.90;;;;;;5042586;28;20052;-80
2023/09/20 04:56:37;;;;;;;12.95;5.00;;;17.30;99.90;;;;;;5037148;28;20144;-80
2023/09/20 04:59:04;;;;;;;11.70;5.25;;;17.30;99.90;;;;;;5026194;28;20048;-81
2023/09/20 05:01:30;;;;;;;15.65;5.45;;;17.20;99.90;;;;;;5018563;28;20056;-78
2023/09/20 05:03:56;;;;;;;12.18;5.50;;;17.20;99.90;;;;;;5024742;28;20207;-74
2023/09/20 05:06:22;;;;;;;13.13;5.25;;;17.20;99.90;;;;;;5055908;28;20032;-74
2023/09/20 05:08:50;;;;;;;13.80;4.78;;;17.20;99.90;;;;;;5036549;28;20395;-75
2023/09/20 05:11:16;;;;;;;13.68;5.20;;;17.20;99.90;;;;;;5023074;28;20050;-75
2023/09/20 05:13:42;;;;;;;11.48;5.53;;;17.10;99.90;;;;;;5006112;28;20452;-75
2023/09/20 05:16:08;;;;;;;12.63;4.93;;;17.10;99.90;;;;;;5036400;28;20055;-75
2023/09/20 05:18:34;;;;;;;17.40;4.95;;;17.10;99.90;;;;;;5035490;28;20051;-75
2023/09/20 05:21:00;;;;;;;11.13;4.82;;;17.10;99.90;;;;;;5021029;28;22276;-76
2023/09/20 05:23:30;;;;;;;12.30;4.72;;;17.10;99.90;;;;;;5046752;28;20028;-75
2023/09/20 05:25:57;;;;;;;9.90;4.15;;;17.20;99.90;;;;;;5006380;28;20563;-74
2023/09/20 05:28:25;;;;;;;11.15;4.13;;;17.20;99.90;;;;;;5036574;28;20110;-74
2023/09/20 05:30:51;;;;;;;13.93;4.50;;;17.20;99.90;;;;;;5014070;28;20050;-75
2023/09/20 05:33:17;;;;;;;11.10;4.10;;;17.20;99.90;;;;;;5036795;28;20543;-74
2023/09/20 05:35:43;;;;;;;10.57;4.18;;;17.20;99.90;;;;;;5032507;28;20048;-74
2023/09/20 05:38:13;;;;;;;11.27;4.00;;;17.20;99.90;;;;;;5033923;28;20049;-74
2023/09/20 05:40:38;;;;;;;11.10;4.28;;;17.20;99.90;;;;;;5028886;28;20794;-75
2023/09/20 05:43:06;;;;;;;12.45;4.00;;;17.20;99.90;;;;;;5015254;28;20044;-74
2023/09/20 05:45:34;;;;;;;14.75;4.93;;;17.30;99.90;;;;;;5039127;28;20774;-74
2023/09/20 05:48:01;;;;;;;12.20;4.60;;;17.30;99.90;;;;;;5033576;28;20124;-75
2023/09/20 05:50:33;;;;;;;14.15;4.32;;;17.30;99.90;;;;;;5020687;28;20052;-74
2023/09/20 05:53:11;;;;;;;12.05;5.07;;;17.30;99.90;;;;;;5009855;28;20049;-74
2023/09/20 05:55:43;;;;;;;15.82;4.78;;;17.30;99.90;;;;;;5032173;28;20067;-74
2023/09/20 05:58:12;;;;;;;9.48;4.45;;;17.30;99.90;;;;;;5034516;28;20048;-75
2023/09/20 06:00:37;;;;;;;10.70;4.45;;;17.30;99.90;;;;;;5034147;28;20167;-74
2023/09/20 06:03:04;;;;;;;13.20;4.30;;;17.30;99.90;;;;;;5031680;28;20060;-74
2023/09/20 06:05:37;;;;;;;9.73;4.00;;;17.30;99.90;;;;;;5043115;28;20153;-75
2023/09/20 06:08:04;;;;;;;12.63;4.38;;;17.30;99.90;;;;;;5034875;28;20150;-74
2023/09/20 06:10:31;;;;;;;12.60;3.97;;;17.50;99.90;;;;;;5048927;28;20123;-76
2023/09/20 06:12:58;;;;;;;8.57;4.07;;;17.40;99.90;;;;;;5018023;28;20050;-75
2023/09/20 06:15:24;;;;;;;13.63;4.30;;;17.30;99.90;;;;;;5035000;28;20134;-75
2023/09/20 06:17:51;;;;;;;14.75;4.28;;;17.40;99.90;;;;;;5000735;28;20264;-75
2023/09/20 06:20:21;;;;;;;9.60;4.28;;;17.40;99.90;;;;;;5053620;28;20052;-76
2023/09/20 06:22:51;;;;;;;8.75;4.78;;;17.60;99.90;;;;;;5040667;28;20044;-75
2023/09/20 06:25:21;;;;;;;9.98;4.30;;;17.40;99.90;;;;;;5041165;28;20051;-76
2023/09/20 06:27:50;;;;;;;13.10;4.95;;;17.40;99.90;;;;;;5041473;28;20052;-76
2023/09/20 06:30:21;;;;;;;10.65;4.60;;;17.40;99.90;;;;;;5023483;28;20051;-75
2023/09/20 06:32:47;;;;;;;8.77;3.50;;;17.40;99.90;;;;;;5021695;28;20036;-75
2023/09/20 06:35:20;;;;;;;7.82;4.00;;;17.50;99.90;;;;;;5044491;28;20079;-75
2023/09/20 06:37:50;;;;;;;10.35;4.13;;;17.50;99.90;;;;;;5039608;28;20041;-75
2023/09/20 06:40:33;;;;;;;9.23;3.53;;;17.50;99.90;;;;;;5039788;28;20048;-76
2023/09/20 06:43:01;;;;;;;11.00;4.10;;;17.50;99.90;;;;;;5044463;28;20053;-76
2023/09/20 06:45:27;;;;;;;10.93;3.70;;;17.50;99.90;;;;;;5057232;28;20071;-75
2023/09/20 06:47:55;;;;;;;12.40;3.50;;;17.60;99.90;;;;;;5058912;28;20496;-75
2023/09/20 06:50:21;;;;;;;9.55;3.40;;;17.60;99.90;;;;;;5054014;28;20510;-76
2023/09/20 06:52:48;;;;;;;8.85;3.33;;;17.60;99.90;;;;;;5032429;28;20399;-75
2023/09/20 06:55:16;;;;;;;9.82;3.22;;;17.70;99.90;;;;;;5031576;28;20049;-75
2023/09/20 06:57:42;;;;;;;8.18;3.15;;;17.70;99.90;;;;;;5041530;28;20522;-76
2023/09/20 07:00:42;;;;;;;8.70;2.83;;;17.80;99.90;;;;;;5038103;28;20139;-75
2023/09/20 07:03:02;;;;;;;11.45;3.00;;;17.80;99.90;;;;;;5031483;28;20067;-76
2023/09/20 07:05:31;;;;;;;9.70;3.35;;;17.80;99.90;;;;;;5027865;28;22762;-75
2023/09/20 07:08:01;;;;;;;6.68;3.15;;;17.80;99.90;;;;;;5028644;28;20060;-76
2023/09/20 07:10:31;;;;;;;6.95;2.72;;;17.80;99.90;;;;;;5061270;28;20139;-76
2023/09/20 07:12:57;;;;;;;10.63;3.50;;;17.90;99.90;;;;;;5010140;28;20177;-76
2023/09/20 07:15:28;;;;;;;7.75;2.80;;;17.90;99.90;;;;;;5036311;28;20048;-76
2023/09/20 07:18:00;;;;;;;9.07;3.03;;;17.90;99.90;;;;;;5024657;28;20052;-77
2023/09/20 07:20:31;;;;;;;6.20;3.08;;;17.90;99.90;;;;;;5027795;28;20045;-76
2023/09/20 07:22:58;;;;;;;7.93;3.05;;;17.90;99.90;;;;;;5040844;28;20056;-76
2023/09/20 07:25:27;;;;;;;8.02;2.72;;;17.90;99.90;;;;;;5028005;28;20175;-76
2023/09/20 07:27:58;;;;;;;6.75;3.25;;;17.90;99.90;;;;;;5060683;28;20454;-76
2023/09/20 07:30:31;;;;;;;9.50;2.95;;;17.90;99.90;;;;;;5044315;28;20053;-76
2023/09/20 07:32:59;;;;;;;9.23;3.20;;;18.00;99.90;;;;;;5059460;28;20097;-76
2023/09/20 07:35:36;;;;;;;7.75;3.10;;;18.00;99.90;;;;;;5027703;28;20561;-76
2023/09/20 07:38:04;;;;;;;7.57;2.33;;;18.00;99.90;;;;;;5042595;28;20546;-76
2023/09/20 07:40:31;;;;;;;9.32;3.00;;;18.00;99.90;;;;;;5041084;28;20462;-76
2023/09/20 07:43:10;;;;;;;7.88;3.40;;;18.00;99.90;;;;;;5022363;28;20510;-75
2023/09/20 07:45:41;;;;;;;9.25;3.08;;;18.10;99.90;;;;;;5024598;28;20055;-76
2023/09/20 07:48:16;;;;;;;7.95;3.13;;;18.10;99.90;;;;;;5024885;28;20044;-76
2023/09/20 07:50:50;;;;;;;6.65;2.80;;;18.10;99.90;;;;;;5039851;28;20076;-76
2023/09/20 07:53:21;;;;;;;8.60;3.08;;;18.10;99.90;;;;;;5039978;28;20497;-78
2023/09/20 07:56:03;;;;;;;6.82;3.00;;;18.00;99.90;;;;;;5037772;28;20058;-75
2023/09/20 07:58:35;;;;;;;7.20;3.20;;;18.00;99.90;;;;;;5039892;28;20078;-75
2023/09/20 08:01:12;;;;;;;9.32;3.17;;;18.00;99.90;;;;;;5044497;28;20044;-75
2023/09/20 08:03:39;;;;;;;8.77;3.30;;;18.00;99.90;;;;;;5038379;28;20159;-75
2023/09/20 08:06:09;;;;;;;5.93;3.08;;;18.20;99.90;;;;;;5041681;28;20102;-75
2023/09/20 08:08:37;;;;;;;7.85;3.20;;;18.20;99.90;;;;;;5022413;28;20071;-76
2023/09/20 08:11:03;;;;;;;6.40;3.40;;;18.40;99.90;;;;;;5061121;28;20051;-75
2023/09/20 08:13:29;;;;;;;8.80;3.17;;;18.50;99.90;;;;;;5043566;28;20044;-75
2023/09/20 08:15:55;;;;;;;7.90;4.03;;;18.60;99.90;;;;;;5056658;28;20094;-76
2023/09/20 08:21:06;;;;;;;5.50;3.05;;;18.90;99.90;;;;;;5032148;28;20075;-77
2023/09/20 09:02:17;;;;;;;6.93;2.95;;;21.70;91.50;;;;;;5063882;28;20052;-77
2023/09/20 09:04:49;;;;;;;8.00;3.20;;;21.80;91.00;;;;;;5031075;28;20051;-75
2023/09/20 09:07:17;;;;;;;8.57;2.80;;;21.70;90.40;;;;;;5038486;28;20127;-76
2023/09/20 09:09:45;;;;;;;5.57;2.67;;;21.60;90.60;;;;;;5050348;28;20047;-76
2023/09/20 09:12:11;;;;;;;6.20;2.70;;;21.40;90.80;;;;;;5030351;28;20044;-76
2023/09/20 09:14:38;;;;;;;5.82;2.60;;;21.50;91.00;;;;;;5050746;28;20142;-75
2023/09/20 09:17:06;;;;;;;6.53;2.85;;;21.50;90.60;;;;;;5048394;28;20050;-76
2023/09/20 09:19:33;;;;;;;4.72;2.47;;;21.40;90.60;;;;;;5029073;28;20045;-75
2023/09/20 09:22:00;;;;;;;5.63;2.45;;;21.40;90.50;;;;;;5048043;28;20123;-75
2023/09/20 09:24:27;;;;;;;6.50;2.55;;;21.30;90.40;;;;;;5034329;28;20098;-76
2023/09/20 09:27:04;;;;;;;5.43;2.47;;;21.20;90.60;;;;;;5046537;28;20052;-77
2023/09/20 09:29:30;;;;;;;9.77;2.70;;;21.00;89.70;;;;;;5024525;28;20055;-76
2023/09/20 09:32:00;;;;;;;6.90;2.42;;;20.90;91.10;;;;;;5052339;28;20048;-75
2023/09/20 09:34:26;;;;;;;5.47;2.50;;;20.80;91.60;;;;;;5016256;28;20044;-76
2023/09/20 09:36:53;;;;;;;6.68;2.70;;;20.70;91.80;;;;;;5051730;28;20054;-76
2023/09/20 09:39:19;;;;;;;6.22;2.50;;;20.70;91.80;;;;;;5064938;28;20060;-76
2023/09/20 09:41:46;;;;;;;5.07;2.33;;;20.70;91.70;;;;;;5044474;28;20074;-76
2023/09/20 09:44:13;;;;;;;5.32;2.85;;;20.60;91.60;;;;;;5021512;28;20114;-76
2023/09/20 09:46:40;;;;;;;4.68;2.47;;;20.50;91.70;;;;;;5057590;28;20055;-75
2023/09/20 09:49:11;;;;;;;5.80;2.65;;;20.50;92.00;;;;;;5050998;28;20101;-77
2023/09/20 09:51:45;;;;;;;5.22;2.38;;;20.30;92.10;;;;;;5048960;28;20576;-76
2023/09/20 09:54:15;;;;;;;6.68;2.83;;;20.20;92.30;;;;;;5035527;28;20048;-76
2023/09/20 09:56:41;;;;;;;4.35;2.50;;;20.10;92.60;;;;;;5038912;28;20089;-75
2023/09/20 09:59:07;;;;;;;4.82;2.35;;;20.00;92.90;;;;;;5003073;28;20129;-76
2023/09/20 10:01:38;;;;;;;5.70;2.83;;;19.90;93.10;;;;;;5039230;28;20359;-75
2023/09/20 10:04:07;;;;;;;4.45;2.13;;;19.90;93.30;;;;;;5021741;28;20049;-75
2023/09/20 10:07:01;;;;;;;6.18;2.47;;;19.80;93.50;;;;;;5040884;28;20640;-76
2023/09/20 10:09:33;;;;;;;3.95;2.13;;;19.80;93.50;;;;;;5036553;28;20056;-73
2023/09/20 10:11:59;;;;;;;5.55;2.85;;;19.70;93.70;;;;;;5054773;28;20059;-83
2023/09/20 10:14:25;;;;;;;5.35;2.60;;;19.70;93.80;;;;;;5040632;28;20052;-79
2023/09/20 10:16:50;;;;;;;5.45;2.45;;;19.70;93.60;;;;;;5042212;28;20055;-84
2023/09/20 10:19:16;;;;;;;4.90;2.55;;;19.60;93.30;;;;;;5038186;28;20055;-77
2023/09/20 10:22:08;;;;;;;3.33;2.20;;;19.60;93.30;;;;;;5054040;28;20041;-78
2023/09/20 10:24:58;;;;;;;7.03;2.47;;;19.60;92.70;;;;;;5038150;28;20809;-77
2023/09/20 10:27:34;;;;;;;6.45;2.80;;;19.60;93.20;;;;;;5035637;28;20048;-80
2023/09/20 10:30:09;;;;;;;4.95;2.55;;;19.60;93.30;;;;;;5038042;28;20059;-76
2023/09/20 10:32:38;;;;;;;4.22;2.38;;;19.60;93.30;;;;;;5038984;28;20056;-73
2023/09/20 10:35:19;;;;;;;4.55;2.65;;;19.70;93.30;;;;;;5057518;28;20111;-74
2023/09/20 10:38:17;;;;;;;7.28;2.95;;;19.60;93.00;;;;;;5037368;28;20052;-74
2023/09/20 10:40:51;;;;;;;4.53;2.38;;;19.50;93.20;;;;;;5044948;28;20140;-74
2023/09/20 10:43:35;;;;;;;6.65;2.63;;;19.50;93.60;;;;;;5015368;28;20065;-74
2023/09/20 10:46:07;;;;;;;3.88;2.38;;;19.40;93.80;;;;;;4976102;28;20045;-74
2023/09/20 10:48:33;;;;;;;6.15;2.28;;;19.30;94.00;;;;;;5007231;28;20056;-75
2023/09/20 10:51:03;;;;;;;4.53;2.47;;;19.30;94.30;;;;;;5009698;28;20053;-74
2023/09/20 10:54:03;;;;;;;6.20;2.72;;;19.20;94.40;;;;;;5005477;28;20624;-74
2023/09/20 10:56:46;;;;;;;4.72;3.25;;;19.10;94.30;;;;;;5008254;28;20072;-74
2023/09/20 10:59:16;;;;;;;5.50;3.22;;;19.10;94.20;;;;;;4982792;28;20094;-74
2023/09/20 11:01:50;;;;;;;6.57;3.40;;;19.00;94.40;;;;;;5004705;28;20146;-75
2023/09/20 11:04:16;;;;;;;7.72;3.38;;;19.10;94.30;;;;;;4979958;28;20057;-74
2023/09/20 11:06:47;;;;;;;7.78;3.75;;;19.10;94.30;;;;;;4989831;28;20098;-75
2023/09/20 11:09:14;;;;;;;5.65;3.78;;;19.10;94.30;;;;;;5005691;28;20057;-74
2023/09/20 11:11:41;;;;;;;5.60;3.60;;;19.20;94.40;;;;;;4980005;28;20715;-73
2023/09/20 11:14:08;;;;;;;6.80;3.63;;;19.20;94.40;;;;;;5030199;28;20461;-74
2023/09/20 11:16:34;;;;;;;5.55;3.40;;;19.30;94.40;;;;;;5039081;28;20053;-75
2023/09/20 11:19:00;;;;;;;7.45;3.78;;;19.40;94.60;;;;;;5041399;28;20047;-75
2023/09/20 11:21:26;;;;;;;7.47;3.65;;;19.40;94.60;;;;;;5036667;28;20045;-74
2023/09/20 11:23:53;;;;;;;5.43;3.25;;;19.40;94.70;;;;;;5051935;28;20052;-74
2023/09/20 11:26:28;;;;;;;5.82;3.70;;;19.40;94.70;;;;;;5041603;28;20054;-74
2023/09/20 11:28:54;;;;;;;;;;;19.40;94.50;;;;;;5037077;28;20055;-76
2023/09/20 11:31:29;;;;;;;5.68;3.63;;;19.40;94.40;;;;;;5029079;28;19925;-74
2023/09/20 11:34:00;;;;;;;5.80;3.85;;;19.40;94.70;;;;;;5035133;28;20048;-75
2023/09/20 11:36:26;;;;;;;7.40;4.00;;;19.50;94.60;;;;;;5035354;28;20107;-73
2023/09/20 11:38:54;;;;;;;4.97;3.15;;;19.50;94.60;;;;;;5039221;28;20048;-74
2023/09/20 11:41:24;;;;;;;5.72;3.63;;;19.60;94.50;;;;;;5034189;28;20101;-74
2023/09/20 11:43:56;;;;;;;5.07;3.30;;;19.60;94.60;;;;;;5048110;28;20036;-74
2023/09/20 11:46:26;;;;;;;7.15;3.35;;;19.60;94.60;;;;;;5010766;28;20220;-74
2023/09/20 11:48:58;;;;;;;5.95;3.30;;;19.60;94.80;;;;;;5022097;28;20056;-75
2023/09/20 11:51:24;;;;;;;4.60;3.10;;;19.60;94.70;;;;;;5023656;28;20051;-75
2023/09/20 11:53:51;;;;;;;6.63;3.10;;;19.70;94.80;;;;;;5011905;28;20121;-74
2023/09/20 11:56:29;;;;;;;4.68;3.22;;;19.70;94.80;;;;;;5048602;28;20052;-74
2023/09/20 11:58:59;;;;;;;7.70;3.10;;;19.70;94.60;;;;;;5030671;28;20048;-75
2023/09/20 12:01:33;;;;;;;4.57;2.90;;;19.70;94.60;;;;;;5037589;28;20076;-75
2023/09/20 12:04:03;;;;;;;10.70;3.03;;;19.70;94.50;;;;;;5045938;28;20638;-74
2023/09/20 12:06:29;;;;;;;5.63;2.80;;;19.70;94.40;;;;;;5043846;28;20507;-74
2023/09/20 12:08:55;;;;;;;5.25;2.38;;;19.60;94.40;;;;;;5043843;28;20568;-74
2023/09/20 12:11:24;;;;;;;5.68;2.80;;;19.60;94.40;;;;;;5048865;28;20048;-73
2023/09/20 12:13:50;;;;;;;6.85;3.05;;;19.60;94.50;;;;;;5027920;28;20040;-74
2023/09/20 12:16:16;;;;;;;7.22;2.80;;;19.60;94.60;;;;;;5023889;28;20864;-74
2023/09/20 12:18:42;;;;;;;5.57;3.30;;;19.50;94.70;;;;;;5019044;28;20103;-75
2023/09/20 12:21:08;;;;;;;7.57;3.05;;;19.50;94.90;;;;;;5032301;28;20430;-75
2023/09/20 12:23:35;;;;;;;7.85;3.00;;;19.50;95.00;;;;;;5050174;28;20051;-74
2023/09/20 12:26:04;;;;;;;5.50;2.70;;;19.50;95.30;;;;;;5016985;28;20097;-75
2023/09/20 12:28:30;;;;;;;4.90;3.08;;;19.40;95.10;;;;;;5048277;28;20380;-75
2023/09/20 12:30:58;;;;;;;6.20;3.13;;;19.40;95.10;;;;;;5051169;28;20044;-75
2023/09/20 12:33:27;;;;;;;5.03;2.80;;;19.40;95.20;;;;;;5019538;28;20044;-75
2023/09/20 12:35:54;;;;;;;5.28;3.63;;;19.40;95.20;;;;;;5031655;28;20049;-75
2023/09/20 12:38:20;;;;;;;8.10;3.20;;;19.30;95.20;;;;;;5033383;28;20052;-74
2023/09/20 12:40:47;;;;;;;6.45;3.00;;;19.30;95.40;;;;;;5036249;28;20131;-74
2023/09/20 12:43:17;;;;;;;5.43;2.95;;;19.30;95.50;;;;;;5053136;28;20048;-74
2023/09/20 12:45:44;;;;;;;6.30;3.30;;;19.30;95.50;;;;;;5048369;28;20062;-74
2023/09/20 12:48:11;;;;;;;5.13;2.95;;;19.30;95.50;;;;;;5040263;28;20051;-74
2023/09/20 12:50:44;;;;;;;5.35;3.00;;;19.30;95.50;;;;;;5054751;28;20106;-75
2023/09/20 12:53:10;;;;;;;5.93;3.25;;;19.30;95.50;;;;;;5037109;28;20494;-74
2023/09/20 12:55:38;;;;;;;6.68;3.28;;;19.30;95.50;;;;;;5038992;28;20043;-74
2023/09/20 12:58:06;;;;;;;5.95;3.50;;;19.30;95.60;;;;;;5048404;28;20301;-74
2023/09/20 13:00:36;;;;;;;6.55;3.80;;;19.30;95.50;;;;;;5042382;28;20076;-74
2023/09/20 13:03:07;;;;;;;7.07;3.30;;;19.40;95.40;;;;;;5045704;28;20040;-74
2023/09/20 13:05:37;;;;;;;5.95;3.45;;;19.50;95.20;;;;;;5040450;28;20132;-74
2023/09/20 13:08:04;;;;;;;4.43;3.10;;;19.60;95.10;;;;;;5052760;28;20731;-73
2023/09/20 13:10:33;;;;;;;7.38;3.47;;;19.60;94.80;;;;;;5039794;28;20055;-74
2023/09/20 13:13:02;;;;;;;6.35;3.13;;;19.60;94.70;;;;;;5016959;28;20050;-74
2023/09/20 13:15:28;;;;;;;8.35;3.33;;;19.60;94.60;;;;;;5036605;28;20052;-75
2023/09/20 13:17:56;;;;;;;4.60;3.40;;;19.70;94.60;;;;;;5054255;28;20099;-74
2023/09/20 13:20:25;;;;;;;6.90;3.20;;;19.70;94.50;;;;;;5017317;28;20056;-74
2023/09/20 13:22:56;;;;;;;5.18;3.08;;;19.70;94.30;;;;;;5017647;28;20133;-74
2023/09/20 13:25:22;;;;;;;5.60;3.17;;;19.80;94.20;;;;;;5033286;28;20406;-74
2023/09/20 13:27:54;;;;;;;8.02;3.22;;;19.40;93.90;;;;;;5033147;28;20740;-74
2023/09/20 13:30:20;;;;;;;4.22;2.70;;;20.10;93.70;;;;;;5022104;28;20041;-75
2023/09/20 13:32:46;;;;;;;6.45;3.03;;;20.50;93.10;;;;;;5004738;28;20055;-75
2023/09/20 13:35:15;;;;;;;6.53;2.85;;;20.80;92.20;;;;;;5021431;28;20087;-74